Time;durP1;ratioP1;P1;durP2;ratioP2;P2;SDS_P1;SDS_P2;PMS_P1;PMS_P2;Temp;Humidity;BMP_temperature;BMP_pressure;BME280_temperature;BME280_humidity;BME280_pressure;Samples;Min_cycle;Max_cycle;Signal;HPM_P1;HPM_P2
2022/05/27 00:00:21;;;;;;;1.62;0.70;;;;;;;16.15;56.36;99956.61;1671670;85;21581;-71
2022/05/27 00:02:50;;;;;;;0.60;0.60;;;;;;;16.18;56.59;99943.75;1658445;86;21114;-68
2022/05/27 00:05:19;;;;;;;1.42;0.70;;;;;;;16.19;56.63;99952.12;1659440;85;21497;-69
2022/05/27 00:07:45;;;;;;;0.75;0.75;;;;;;;16.18;56.73;99953.16;1670750;85;21041;-69
2022/05/27 00:10:14;;;;;;;;;;;;;;;16.15;56.60;99950.42;1660855;86;21501;-71
2022/05/27 00:12:40;;;;;;;0.95;0.90;;;;;;;16.16;56.80;99952.05;1665908;85;20107;-68
2022/05/27 00:15:08;;;;;;;0.93;0.42;;;;;;;16.10;56.91;99940.36;1658759;85;21076;-70
2022/05/27 00:17:34;;;;;;;3.60;0.75;;;;;;;16.10;56.93;99941.70;1664766;85;21165;-69
2022/05/27 00:20:01;;;;;;;2.02;0.40;;;;;;;16.11;56.94;99947.39;1672053;85;21074;-71
2022/05/27 00:22:27;;;;;;;0.90;0.90;;;;;;;16.11;57.27;99939.32;1684332;85;21053;-75
2022/05/27 00:24:53;;;;;;;2.77;0.53;;;;;;;16.11;57.08;99945.23;1687347;85;21329;-69
2022/05/27 00:27:19;;;;;;;1.95;0.57;;;;;;;16.09;57.33;99949.49;1664458;85;21025;-73
2022/05/27 00:29:47;;;;;;;2.05;0.85;;;;;;;16.06;57.53;99956.67;1677028;85;21641;-69
2022/05/27 00:32:13;;;;;;;1.27;0.68;;;;;;;16.04;57.50;99959.31;1654314;85;21519;-70
2022/05/27 00:34:39;;;;;;;4.53;0.60;;;;;;;16.03;57.80;99955.81;1674261;84;21116;-71
2022/05/27 00:37:06;;;;;;;2.62;0.40;;;;;;;16.03;57.76;99959.84;1698017;84;21036;-71
2022/05/27 00:39:33;;;;;;;0.90;0.53;;;;;;;16.03;57.81;99959.00;1692164;84;21068;-70
2022/05/27 00:42:01;;;;;;;1.27;0.47;;;;;;;16.03;57.70;99961.19;1693492;84;21545;-69
2022/05/27 00:44:27;;;;;;;2.10;0.62;;;;;;;16.05;57.77;99960.93;1687050;84;21029;-73
2022/05/27 00:46:57;;;;;;;0.50;0.50;;;;;;;16.04;58.08;99965.50;1692823;84;21051;-70
2022/05/27 00:49:26;;;;;;;0.82;0.50;;;;;;;16.04;58.09;99971.41;1669945;84;21097;-70
2022/05/27 00:51:58;;;;;;;2.25;0.40;;;;;;;16.01;58.54;99975.39;1686547;84;21625;-70
2022/05/27 00:54:25;;;;;;;2.33;0.70;;;;;;;16.00;58.28;99969.71;1680521;85;21530;-69
2022/05/27 00:56:57;;;;;;;2.42;0.62;;;;;;;15.99;58.39;99974.78;1652194;84;21674;-70
2022/05/27 00:59:34;;;;;;;1.70;0.53;;;;;;;15.99;58.61;99978.00;1663084;85;22463;-70
2022/05/27 01:02:02;;;;;;;1.30;0.57;;;;;;;15.99;58.53;99975.31;1684759;84;21578;-71
2022/05/27 01:04:32;;;;;;;0.72;0.30;;;;;;;16.01;58.45;99969.17;1714269;84;21542;-70
2022/05/27 01:06:58;;;;;;;0.40;0.20;;;;;;;16.02;58.78;99985.08;1692813;84;21014;-70
2022/05/27 01:09:26;;;;;;;3.52;0.40;;;;;;;16.01;58.71;99975.89;1680907;84;21559;-70
2022/05/27 01:12:34;;;;;;;0.70;0.30;;;;;;;16.01;58.68;99981.27;1709242;83;21022;-70
2022/05/27 01:15:37;;;;;;;1.27;0.40;;;;;;;16.01;58.73;99974.05;1686838;84;21115;-73
2022/05/27 01:20:18;;;;;;;1.12;0.72;;;;;;;15.99;58.87;99983.38;1669014;84;21041;-68
2022/05/27 01:21:02;;;;;;;0.90;0.37;;;;;;;15.92;59.55;99986.19;1666405;85;21093;-69
2022/05/27 01:24:03;;;;;;;1.77;0.50;;;;;;;15.86;59.73;99997.84;1687534;84;21568;-69
2022/05/27 01:26:42;;;;;;;2.15;0.60;;;;;;;15.83;59.91;99995.11;1687249;84;21089;-69
2022/05/27 01:30:01;;;;;;;0.98;0.20;;;;;;;15.76;60.66;99994.39;1685602;84;21042;-69
2022/05/27 01:32:35;;;;;;;2.33;0.30;;;;;;;15.71;60.88;100003.13;1685145;85;21575;-69
2022/05/27 01:35:19;;;;;;;0.50;0.40;;;;;;;15.68;60.86;99998.73;1688192;84;21065;-72
2022/05/27 01:38:03;;;;;;;1.40;0.20;;;;;;;15.67;61.03;99996.58;1705268;84;21082;-70
2022/05/27 01:40:35;;;;;;;3.62;0.57;;;;;;;15.67;61.08;99993.05;1686118;84;21041;-68
2022/05/27 01:43:19;;;;;;;1.37;0.30;;;;;;;15.65;61.51;100000.02;1686881;85;21082;-70
2022/05/27 01:46:16;;;;;;;2.02;0.20;;;;;;;15.63;61.45;100008.00;1648233;85;21063;-69
2022/05/27 01:48:48;;;;;;;0.50;0.42;;;;;;;15.61;61.99;100011.44;1654477;85;21107;-69
2022/05/27 01:51:20;;;;;;;4.12;0.42;;;;;;;15.55;62.38;100006.45;1615988;88;21083;-70
2022/05/27 01:54:07;;;;;;;5.10;0.20;;;;;;;15.50;62.28;100017.91;1652779;87;21016;-70
2022/05/27 01:56:51;;;;;;;0.40;0.20;;;;;;;15.48;62.76;100015.97;1666848;84;21178;-68
2022/05/27 01:59:28;;;;;;;0.30;0.20;;;;;;;15.41;63.11;100013.89;1654147;85;21037;-69
2022/05/27 02:02:00;;;;;;;0.55;0.20;;;;;;;15.34;63.29;100012.63;1683697;84;21009;-68
2022/05/27 02:04:41;;;;;;;0.50;0.25;;;;;;;15.32;63.38;100010.70;1646538;84;21592;-68
2022/05/27 02:07:21;;;;;;;3.33;0.40;;;;;;;15.30;64.04;100012.80;1667852;86;21007;-69
2022/05/27 02:09:53;;;;;;;4.10;0.45;;;;;;;15.26;63.96;100014.30;1675562;84;21027;-69
2022/05/27 02:12:43;;;;;;;0.68;0.20;;;;;;;15.25;63.93;100026.08;1687213;84;21024;-69
2022/05/27 02:15:17;;;;;;;0.60;0.20;;;;;;;15.26;64.11;100025.05;1689203;84;21566;-70
2022/05/27 02:17:55;;;;;;;9.97;0.70;;;;;;;15.27;64.29;100019.14;1695113;84;21543;-70
2022/05/27 02:20:28;;;;;;;4.15;0.50;;;;;;;15.28;64.41;100026.97;1684909;84;21089;-69
2022/05/27 02:23:03;;;;;;;1.32;0.20;;;;;;;15.29;64.49;100024.56;1682241;84;21014;-69
2022/05/27 02:25:34;;;;;;;4.75;1.32;;;;;;;15.33;64.56;100031.16;1660296;84;21066;-70
2022/05/27 02:28:21;;;;;;;1.27;0.30;;;;;;;15.47;64.44;100041.71;1672409;84;21001;-71
2022/05/27 02:30:54;;;;;;;2.50;0.30;;;;;;;15.55;64.08;100043.53;1675463;84;21161;-69
2022/05/27 02:35:08;;;;;;;0.55;0.35;;;;;;;15.55;64.15;100054.81;1762311;79;21870;-68
2022/05/27 02:37:41;;;;;;;1.32;0.30;;;;;;;15.52;64.37;100047.20;1704516;83;21065;-69
2022/05/27 02:40:18;;;;;;;3.92;0.60;;;;;;;15.56;64.45;100045.72;1701996;83;21038;-69
2022/05/27 02:43:12;;;;;;;1.87;0.30;;;;;;;15.56;64.35;100042.50;1701640;83;21179;-72
2022/05/27 02:46:10;;;;;;;2.35;0.33;;;;;;;15.53;64.34;100055.03;1719366;81;20974;-69
2022/05/27 02:49:23;;;;;;;1.55;0.20;;;;;;;15.46;64.55;100050.27;1737817;82;21050;-70
2022/05/27 02:52:31;;;;;;;0.88;0.30;;;;;;;15.39;64.84;100058.97;1727774;82;21093;-69
2022/05/27 02:55:18;;;;;;;0.90;0.40;;;;;;;15.34;64.93;100054.25;1673931;83;21162;-69
2022/05/27 02:57:49;;;;;;;4.72;0.50;;;;;;;15.29;65.05;100061.35;1680887;84;21084;-68
2022/05/27 03:00:27;;;;;;;1.87;0.50;;;;;;;15.26;65.47;100049.20;1690023;82;21537;-69
2022/05/27 03:02:54;;;;;;;0.53;0.30;;;;;;;15.24;65.72;100048.62;1660997;85;21041;-69
2022/05/27 03:05:25;;;;;;;0.20;0.10;;;;;;;15.22;65.73;100054.73;1664310;84;21048;-68
2022/05/27 03:08:16;;;;;;;1.27;0.20;;;;;;;15.22;65.86;100054.73;1668186;84;21101;-71
2022/05/27 03:11:04;;;;;;;0.85;0.42;;;;;;;15.25;65.92;100060.98;1672395;84;21033;-69
2022/05/27 03:14:08;;;;;;;0.25;0.25;;;;;;;15.30;65.74;100068.38;1665243;84;21108;-69
2022/05/27 03:17:01;;;;;;;2.95;0.20;;;;;;;15.33;65.67;100067.41;1661710;85;21087;-69
2022/05/27 03:19:38;;;;;;;2.92;0.30;;;;;;;15.37;65.83;100065.90;1668845;84;21138;-71
2022/05/27 03:22:22;;;;;;;0.72;0.10;;;;;;;15.40;65.90;100064.61;1671930;84;21080;-69
2022/05/27 03:25:16;;;;;;;3.90;0.30;;;;;;;15.38;66.04;100072.08;1652846;85;21145;-72
2022/05/27 03:28:09;;;;;;;0.50;0.20;;;;;;;15.35;66.40;100078.73;1651149;85;21057;-70
2022/05/27 03:30:50;;;;;;;0.62;0.30;;;;;;;15.33;66.42;100080.83;1653063;85;21077;-73
2022/05/27 03:33:39;;;;;;;1.22;0.20;;;;;;;15.31;66.54;100081.58;1598173;85;21675;-70
2022/05/27 03:36:34;;;;;;;1.75;0.20;;;;;;;15.27;66.79;100076.34;1672988;85;21620;-71
2022/05/27 03:39:20;;;;;;;7.03;0.30;;;;;;;15.24;67.17;100067.91;1658768;85;21072;-69
2022/05/27 03:41:58;;;;;;;0.15;0.15;;;;;;;15.17;67.37;100055.40;1658821;85;21108;-69
2022/05/27 03:44:27;;;;;;;1.85;0.20;;;;;;;15.14;67.38;100072.47;1661710;85;21265;-71
2022/05/27 03:46:56;;;;;;;0.40;0.20;;;;;;;15.18;67.83;100065.61;1677538;84;21028;-70
2022/05/27 03:49:25;;;;;;;0.90;0.20;;;;;;;15.21;68.05;100061.14;1666810;84;21004;-72
2022/05/27 03:52:07;;;;;;;0.45;0.30;;;;;;;15.28;67.96;100059.20;1685775;84;21098;-72
2022/05/27 03:54:34;;;;;;;0.42;0.28;;;;;;;15.41;67.82;100065.42;1681024;84;21097;-69
2022/05/27 03:57:01;;;;;;;0.30;0.30;;;;;;;15.79;67.71;100064.34;1683723;83;20958;-69
2022/05/27 03:59:27;;;;;;;;;;;;;;;16.57;65.08;100055.72;1691016;83;21637;-69
2022/05/27 04:01:56;;;;;;;;;;;;;;;17.51;61.53;100059.56;1658778;82;20101;-70
2022/05/27 04:04:26;;;;;;;0.10;0.10;;;;;;;18.26;59.31;100056.30;1617913;87;20147;-70
2022/05/27 04:06:53;;;;;;;1.07;0.20;;;;;;;19.96;52.40;100053.27;1676722;85;21122;-72
2022/05/27 04:09:23;;;;;;;1.00;0.10;;;;;;;19.96;52.40;100053.27;1661904;85;21039;-70
2022/05/27 04:11:50;;;;;;;0.80;0.20;;;;;;;20.29;51.54;100060.03;1653080;84;21073;-70
2022/05/27 04:14:18;;;;;;;0.70;0.20;;;;;;;20.61;50.65;100064.07;1664909;85;21073;-69
2022/05/27 04:16:44;;;;;;;1.25;0.10;;;;;;;20.71;50.17;100054.63;1665298;85;21049;-69
2022/05/27 04:19:11;;;;;;;2.17;0.10;;;;;;;20.94;49.21;100060.16;1664719;85;21104;-69
2022/05/27 04:21:38;;;;;;;0.10;0.10;;;;;;;21.26;48.01;100058.40;1674300;85;21116;-70
2022/05/27 04:24:11;;;;;;;0.50;0.20;;;;;;;21.37;47.11;100063.58;1684861;84;21021;-69
2022/05/27 04:26:37;;;;;;;1.55;0.10;;;;;;;21.37;47.34;100068.19;1672885;84;21034;-69
2022/05/27 04:29:03;;;;;;;1.32;0.10;;;;;;;21.49;47.09;100064.75;1694105;84;21005;-70
2022/05/27 04:31:30;;;;;;;1.22;0.30;;;;;;;21.81;46.48;100066.95;1673921;84;21521;-72
2022/05/27 04:33:56;;;;;;;1.22;0.20;;;;;;;22.15;45.10;100064.52;1680096;85;21017;-70
2022/05/27 04:36:23;;;;;;;0.55;0.10;;;;;;;22.11;45.26;100064.28;1689084;84;21045;-71
2022/05/27 04:38:49;;;;;;;0.17;0.10;;;;;;;21.82;45.44;100067.24;1680423;84;21086;-72
2022/05/27 04:41:15;;;;;;;1.70;0.10;;;;;;;21.37;45.82;100067.64;1686496;84;21381;-69
2022/05/27 04:43:42;;;;;;;1.75;0.10;;;;;;;20.72;46.94;100038.68;1671984;84;21068;-71
2022/05/27 04:46:08;;;;;;;;;;;;;;;20.42;47.58;100069.87;1693812;83;21076;-69
2022/05/27 04:48:34;;;;;;;2.30;0.20;;;;;;;19.97;47.83;100063.56;1704751;83;20148;-70
2022/05/27 04:51:00;;;;;;;;;;;;;;;19.72;48.60;100060.04;1702991;83;21105;-71
2022/05/27 04:53:26;;;;;;;0.62;0.20;;;;;;;19.92;47.70;100065.67;1709209;83;20143;-70
2022/05/27 04:55:52;;;;;;;1.80;0.35;;;;;;;19.92;47.38;100067.57;1691412;83;21458;-74
2022/05/27 04:58:18;;;;;;;;;;;;;;;19.92;47.41;100066.22;1691499;83;21499;-74
2022/05/27 05:00:47;;;;;;;3.52;0.20;;;;;;;20.26;46.60;100072.17;1684432;83;20158;-74
2022/05/27 05:03:14;;;;;;;0.10;0.10;;;;;;;20.40;47.48;100072.02;1673380;84;21123;-70
2022/05/27 05:05:41;;;;;;;3.30;0.10;;;;;;;20.51;46.75;100078.84;1673835;84;21124;-71
2022/05/27 05:08:32;;;;;;;1.45;0.17;;;;;;;20.38;46.93;100072.82;1673565;84;21068;-70
2022/05/27 05:11:05;;;;;;;1.60;0.20;;;;;;;20.30;48.90;100083.30;1701272;84;21099;-69
2022/05/27 05:13:31;;;;;;;4.78;0.40;;;;;;;20.22;47.50;100084.05;1675581;83;20992;-70
2022/05/27 05:15:58;;;;;;;0.70;0.13;;;;;;;20.03;48.25;100079.57;1672768;84;21056;-69
2022/05/27 05:18:27;;;;;;;0.40;0.10;;;;;;;19.77;48.78;100069.05;1700553;84;21049;-72
2022/05/27 05:20:53;;;;;;;0.50;0.10;;;;;;;19.43;49.89;100067.05;1685046;84;21096;-75
2022/05/27 05:23:19;;;;;;;;;;;;;;;19.38;50.68;100068.34;1698707;82;21044;-72
2022/05/27 05:25:45;;;;;;;0.95;0.30;;;;;;;19.56;50.16;100063.95;1695102;83;20137;-72
2022/05/27 05:28:11;;;;;;;3.05;0.10;;;;;;;19.86;50.21;100075.36;1696292;83;21035;-76
2022/05/27 05:30:37;;;;;;;;;;;;;;;20.08;49.17;100073.41;1701226;83;21519;-70
2022/05/27 05:33:04;;;;;;;3.33;0.33;;;;;;;20.06;48.67;100071.50;1698124;81;20149;-69
2022/05/27 05:35:30;;;;;;;2.40;0.30;;;;;;;19.79;49.40;100066.91;1696554;83;21531;-71
2022/05/27 05:37:57;;;;;;;;;;;;;;;19.58;49.74;100065.86;1697891;83;21028;-70
2022/05/27 05:40:23;;;;;;;0.93;0.30;;;;;;;19.39;50.41;100063.23;1694666;84;20118;-69
2022/05/27 05:42:50;;;;;;;2.25;0.30;;;;;;;19.15;50.99;100072.94;1694752;83;21028;-71
2022/05/27 05:45:19;;;;;;;0.90;0.20;;;;;;;18.95;51.20;100076.73;1678908;83;21125;-72
2022/05/27 05:47:45;;;;;;;0.68;0.20;;;;;;;18.65;51.49;100086.03;1665364;85;21032;-70
2022/05/27 05:50:15;;;;;;;0.78;0.30;;;;;;;18.34;52.85;100076.11;1665626;85;21159;-71
2022/05/27 05:52:45;;;;;;;1.75;0.20;;;;;;;18.17;53.46;100081.50;1665530;85;21061;-70
2022/05/27 05:55:14;;;;;;;3.85;0.20;;;;;;;18.13;53.52;100079.55;1663945;85;21107;-72
2022/05/27 05:57:43;;;;;;;1.20;0.20;;;;;;;18.16;53.92;100074.48;1667273;85;21593;-70
2022/05/27 06:00:14;;;;;;;3.22;0.50;;;;;;;18.21;52.99;100074.55;1665905;85;21042;-71
2022/05/27 06:02:41;;;;;;;1.12;0.20;;;;;;;18.15;52.56;100069.33;1684506;85;21018;-71
2022/05/27 06:05:09;;;;;;;0.90;0.30;;;;;;;18.14;51.88;100064.98;1682500;85;21057;-72
2022/05/27 06:07:36;;;;;;;2.27;0.30;;;;;;;18.12;51.54;100069.30;1689438;85;21077;-69
2022/05/27 06:10:04;;;;;;;0.40;0.10;;;;;;;18.13;51.68;100065.53;1666844;85;21189;-72
2022/05/27 06:12:35;;;;;;;2.47;0.10;;;;;;;18.09;52.12;100063.84;1674624;84;21471;-72
2022/05/27 06:15:04;;;;;;;2.25;0.57;;;;;;;18.13;52.16;100066.06;1680671;84;20971;-70
2022/05/27 06:17:35;;;;;;;3.45;0.40;;;;;;;18.28;51.92;100059.02;1698954;84;21081;-72
2022/05/27 06:20:02;;;;;;;0.70;0.25;;;;;;;18.45;51.17;100057.66;1681261;83;21054;-70
2022/05/27 06:22:29;;;;;;;0.95;0.10;;;;;;;18.35;50.51;100031.89;1677799;84;21582;-70
2022/05/27 06:24:55;;;;;;;0.98;0.20;;;;;;;18.60;49.64;100058.95;1666406;85;21184;-72
2022/05/27 06:27:21;;;;;;;;;;;;;;;18.58;49.20;100059.74;1669294;85;21074;-74
2022/05/27 06:34:23;;;;;;;1.37;0.55;;;;;;;18.59;48.83;100062.71;1651894;85;21545;-70
2022/05/27 06:35:19;;;;;;;1.55;0.20;;;;;;;18.61;48.29;100061.92;1654089;84;21090;-72
2022/05/27 06:37:49;;;;;;;1.02;0.20;;;;;;;18.54;48.55;100058.61;1683708;84;21565;-71
2022/05/27 06:40:17;;;;;;;1.30;0.23;;;;;;;18.47;48.90;100062.27;1689362;84;21589;-74
2022/05/27 06:42:44;;;;;;;1.30;0.23;;;;;;;18.45;48.98;100062.25;1695034;83;21581;-71
2022/05/27 06:45:13;;;;;;;0.53;0.20;;;;;;;18.49;49.20;100053.40;1654268;85;21082;-70
2022/05/27 06:47:41;;;;;;;1.90;0.40;;;;;;;18.62;48.42;100046.03;1672882;84;20986;-71
2022/05/27 06:50:09;;;;;;;2.92;0.30;;;;;;;18.79;48.21;100046.80;1683553;84;20979;-72
2022/05/27 06:52:36;;;;;;;0.30;0.10;;;;;;;19.07;47.90;100051.78;1683072;84;21054;-71
2022/05/27 06:55:05;;;;;;;2.30;0.20;;;;;;;19.37;46.88;100041.05;1682417;84;21521;-71
2022/05/27 06:57:31;;;;;;;3.02;0.33;;;;;;;19.51;45.20;100039.56;1683657;84;21076;-70
2022/05/27 06:59:58;;;;;;;2.58;0.20;;;;;;;19.58;44.32;100031.26;1683722;84;21018;-70
2022/05/27 07:02:24;;;;;;;2.20;0.23;;;;;;;19.77;44.53;100033.89;1682663;84;21126;-71
2022/05/27 07:04:50;;;;;;;;;;;;;;;20.02;43.55;100023.84;1686317;84;21002;-72
2022/05/27 07:07:19;;;;;;;1.27;0.10;;;;;;;20.26;43.25;100030.23;1683882;84;20159;-71
2022/05/27 07:09:45;;;;;;;1.90;0.20;;;;;;;20.37;42.78;100021.65;1682996;84;21084;-76
2022/05/27 07:12:12;;;;;;;;;;;;;;;20.50;42.79;100022.54;1685386;84;21010;-73
2022/05/27 07:14:39;;;;;;;0.30;0.20;;;;;;;20.62;42.49;100014.23;1683727;84;20158;-77
2022/05/27 07:17:06;;;;;;;1.00;0.20;;;;;;;20.63;42.22;100012.36;1683799;84;21372;-70
2022/05/27 07:19:32;;;;;;;5.28;0.20;;;;;;;20.70;42.15;100016.98;1684000;84;21219;-70
2022/05/27 07:22:00;;;;;;;1.07;0.17;;;;;;;20.80;41.43;100010.27;1682885;85;21070;-73
2022/05/27 07:24:26;;;;;;;1.52;0.20;;;;;;;20.84;41.53;99999.18;1683165;84;21106;-70
2022/05/27 07:26:52;;;;;;;0.75;0.10;;;;;;;21.08;42.17;99998.70;1683822;84;21003;-70
2022/05/27 07:29:19;;;;;;;0.68;0.10;;;;;;;21.46;39.59;99994.77;1683684;84;21077;-72
2022/05/27 07:31:45;;;;;;;1.70;0.15;;;;;;;21.68;38.79;99985.56;1682569;84;21089;-73
2022/05/27 07:34:12;;;;;;;;;;;;;;;21.78;37.34;99987.74;1686808;84;21082;-74
2022/05/27 07:36:39;;;;;;;0.80;0.03;;;;;;;21.69;36.96;99981.78;1683642;84;20166;-71
2022/05/27 07:39:07;;;;;;;0.68;0.10;;;;;;;21.50;36.43;99976.88;1695370;84;21082;-73
2022/05/27 07:41:34;;;;;;;0.20;0.10;;;;;;;21.28;36.75;99978.44;1689319;83;21035;-71
2022/05/27 07:44:01;;;;;;;1.10;0.10;;;;;;;21.21;37.28;99979.26;1683750;84;21113;-72
2022/05/27 07:46:30;;;;;;;1.22;0.10;;;;;;;21.20;37.54;99981.13;1683796;84;21042;-70
2022/05/27 07:48:57;;;;;;;1.70;0.10;;;;;;;21.08;37.23;99972.45;1683796;84;21049;-72
2022/05/27 07:51:23;;;;;;;0.60;0.20;;;;;;;21.01;37.97;99986.78;1683836;84;21049;-73
2022/05/27 07:53:49;;;;;;;1.15;0.10;;;;;;;21.06;37.75;99973.25;1660342;85;21019;-72
2022/05/27 07:56:16;;;;;;;2.50;0.10;;;;;;;21.17;37.69;99971.36;1660437;84;21089;-71
2022/05/27 07:58:43;;;;;;;1.02;0.10;;;;;;;21.23;37.09;99966.77;1683638;84;21122;-72
2022/05/27 08:01:09;;;;;;;0.68;0.20;;;;;;;21.17;37.14;99965.42;1682790;84;21022;-72
2022/05/27 08:03:36;;;;;;;3.17;0.20;;;;;;;21.18;36.99;99971.10;1683705;84;21086;-74
2022/05/27 08:06:02;;;;;;;0.68;0.20;;;;;;;21.18;37.49;99966.23;1683461;84;21133;-72
2022/05/27 08:08:29;;;;;;;0.47;0.10;;;;;;;21.21;37.91;99965.70;1683406;84;21610;-72
2022/05/27 08:10:58;;;;;;;0.68;0.10;;;;;;;21.29;38.15;99971.95;1682030;84;21565;-71
2022/05/27 08:13:26;;;;;;;1.05;0.17;;;;;;;21.35;38.05;99970.06;1683677;84;21602;-70
2022/05/27 08:15:54;;;;;;;0.50;0.13;;;;;;;21.35;38.32;99964.09;1683844;84;21148;-71
2022/05/27 08:18:21;;;;;;;1.95;0.10;;;;;;;21.42;38.36;99962.48;1683869;84;21518;-70
2022/05/27 08:20:48;;;;;;;4.80;0.13;;;;;;;21.51;38.00;99958.70;1682906;84;20995;-72
2022/05/27 08:23:14;;;;;;;1.95;0.10;;;;;;;21.55;37.34;99961.98;1682401;84;21085;-71
2022/05/27 08:25:42;;;;;;;0.93;0.10;;;;;;;21.62;36.89;99958.17;1683954;84;21166;-74
2022/05/27 08:28:09;;;;;;;1.30;0.10;;;;;;;21.67;36.41;99940.55;1683541;84;21606;-71
2022/05/27 08:30:40;;;;;;;5.05;0.28;;;;;;;21.68;35.89;99955.73;1683715;84;21137;-73
2022/05/27 08:33:07;;;;;;;1.55;0.20;;;;;;;21.64;35.91;99964.95;1683501;84;21165;-71
2022/05/27 08:38:29;;;;;;;3.75;0.10;;;;;;;21.63;35.85;99951.12;1683864;84;21077;-72
2022/05/27 08:41:42;;;;;;;1.67;0.10;;;;;;;21.68;36.13;99942.17;1692889;84;21058;-73
2022/05/27 08:44:26;;;;;;;0.23;0.00;;;;;;;21.79;35.94;99949.22;1683580;83;21033;-75
2022/05/27 08:47:07;;;;;;;1.30;0.20;;;;;;;21.94;35.21;99932.95;1701033;84;21058;-72
2022/05/27 08:49:42;;;;;;;3.35;0.10;;;;;;;22.00;35.16;99932.91;1669168;84;21634;-73
2022/05/27 08:52:19;;;;;;;0.35;0.10;;;;;;;22.02;34.76;99940.23;1702740;84;21542;-71
2022/05/27 08:54:52;;;;;;;6.08;0.23;;;;;;;21.99;34.59;99938.89;1682520;84;21097;-72
2022/05/27 09:00:24;;;;;;;0.42;0.10;;;;;;;21.85;34.97;99942.72;1683600;84;21058;-72
2022/05/27 09:03:01;;;;;;;0.88;0.25;;;;;;;21.87;34.75;99944.61;1683401;84;21071;-70
2022/05/27 09:05:42;;;;;;;2.42;0.10;;;;;;;21.85;35.18;99940.53;1678036;84;21097;-72
2022/05/27 09:08:26;;;;;;;3.35;0.20;;;;;;;21.75;34.88;99940.00;1709980;84;21140;-73
2022/05/27 09:11:27;;;;;;;3.02;0.30;;;;;;;21.71;35.09;99941.63;1685843;85;21021;-71
2022/05/27 09:14:13;;;;;;;3.42;0.10;;;;;;;21.67;35.00;99945.43;1670212;85;21054;-71
2022/05/27 09:17:05;;;;;;;1.77;0.17;;;;;;;21.49;34.39;99943.25;1686974;84;21098;-69
2022/05/27 09:19:41;;;;;;;1.42;0.28;;;;;;;21.32;35.09;99932.11;1685319;85;21804;-69
2022/05/27 09:22:23;;;;;;;;;;;;;;;21.32;35.48;99942.95;1627748;84;21116;-71
2022/05/27 09:25:06;;;;;;;0.65;0.13;;;;;;;21.47;35.12;99934.58;1658788;85;20187;-71
2022/05/27 09:27:41;;;;;;;2.27;0.10;;;;;;;21.45;34.90;99927.26;1694125;84;21529;-70
2022/05/27 09:30:14;;;;;;;2.83;0.10;;;;;;;21.35;35.38;99932.11;1689431;84;21484;-69
2022/05/27 09:32:56;;;;;;;0.65;0.45;;;;;;;21.30;35.46;99933.45;1684145;84;21022;-70
2022/05/27 09:35:46;;;;;;;2.22;0.60;;;;;;;21.31;35.65;99926.95;1683469;84;21088;-71
2022/05/27 09:38:29;;;;;;;1.55;0.90;;;;;;;21.35;35.64;99935.62;1684997;84;21042;-72
2022/05/27 09:40:59;;;;;;;3.67;0.72;;;;;;;21.41;35.21;99923.44;1697464;83;21101;-76
2022/05/27 09:43:45;;;;;;;1.57;0.33;;;;;;;21.37;34.27;99918.55;1683694;84;21082;-71
2022/05/27 09:46:17;;;;;;;3.22;1.05;;;;;;;21.30;34.89;99925.31;1683656;84;21505;-74
2022/05/27 09:48:44;;;;;;;3.20;1.35;;;;;;;21.28;35.49;99924.22;1683548;84;21533;-71
2022/05/27 09:51:15;;;;;;;3.02;1.52;;;;;;;21.36;35.96;99922.35;1700929;84;21557;-71
2022/05/27 09:53:52;;;;;;;1.75;0.10;;;;;;;21.55;35.49;99908.30;1684419;83;21034;-72
2022/05/27 09:56:32;;;;;;;5.37;0.50;;;;;;;21.72;34.91;99899.33;1684033;84;21010;-71
2022/05/27 09:59:21;;;;;;;0.35;0.30;;;;;;;21.85;34.57;99902.55;1670279;85;21817;-72
2022/05/27 10:01:48;;;;;;;7.55;0.20;;;;;;;21.94;34.42;99899.55;1683629;84;21109;-72
2022/05/27 10:04:16;;;;;;;3.30;0.35;;;;;;;21.99;34.30;99891.41;1694871;84;21073;-72
2022/05/27 10:06:44;;;;;;;1.85;0.20;;;;;;;22.01;34.18;99891.94;1689950;83;20998;-72
2022/05/27 10:09:27;;;;;;;2.80;0.23;;;;;;;22.03;34.29;99882.17;1683728;84;20994;-72
2022/05/27 10:11:57;;;;;;;0.62;0.20;;;;;;;22.07;34.78;99881.89;1679331;85;21026;-72
2022/05/27 10:14:28;;;;;;;2.52;0.40;;;;;;;22.17;34.61;99885.94;1683780;85;21506;-71
2022/05/27 10:17:14;;;;;;;2.15;0.20;;;;;;;22.19;34.25;99871.55;1665900;84;21038;-70
2022/05/27 10:19:43;;;;;;;2.27;0.28;;;;;;;22.11;34.13;99873.45;1680793;84;21010;-71
2022/05/27 10:22:27;;;;;;;1.20;0.15;;;;;;;22.04;34.29;99860.19;1691650;84;21086;-70
2022/05/27 10:25:09;;;;;;;1.55;0.15;;;;;;;22.05;34.54;99863.71;1682594;84;21051;-70
2022/05/27 10:27:40;;;;;;;0.78;0.25;;;;;;;22.11;34.34;99856.65;1683579;84;21030;-72
2022/05/27 10:30:23;;;;;;;1.00;0.20;;;;;;;22.19;34.00;99863.41;1683538;84;21046;-71
2022/05/27 10:32:50;;;;;;;0.95;0.20;;;;;;;22.24;33.94;99854.41;1683089;84;21214;-73
2022/05/27 10:35:27;;;;;;;1.05;0.20;;;;;;;22.28;34.08;99852.27;1683051;84;21117;-72
2022/05/27 10:38:10;;;;;;;2.15;0.15;;;;;;;22.39;34.40;99848.14;1683278;84;21167;-71
2022/05/27 10:41:03;;;;;;;1.62;0.20;;;;;;;22.45;33.78;99851.09;1683754;84;21545;-72
2022/05/27 10:43:54;;;;;;;0.65;0.10;;;;;;;22.36;33.26;99850.88;1683438;85;21026;-71
2022/05/27 10:46:23;;;;;;;0.65;0.20;;;;;;;22.33;33.33;99849.52;1683566;84;21074;-73
2022/05/27 10:49:37;;;;;;;1.50;0.10;;;;;;;22.34;33.72;99838.94;1683676;84;21090;-74
2022/05/27 10:52:36;;;;;;;1.75;0.20;;;;;;;22.36;33.51;99835.95;1683669;84;21003;-72
2022/05/27 10:55:19;;;;;;;4.08;0.15;;;;;;;22.29;33.57;99844.94;1681455;84;21070;-72
2022/05/27 11:04:40;;;;;;;1.70;0.10;;;;;;;22.12;34.40;99839.81;1684089;84;21017;-71
2022/05/27 11:07:46;;;;;;;0.55;0.10;;;;;;;22.15;34.65;99840.59;1683784;84;21569;-72
2022/05/27 11:10:22;;;;;;;0.42;0.10;;;;;;;22.19;35.06;99838.14;1683044;84;21122;-71
2022/05/27 11:16:25;;;;;;;1.60;0.10;;;;;;;22.38;35.26;99833.77;1683904;84;20986;-70
2022/05/27 11:19:21;;;;;;;2.72;0.30;;;;;;;22.37;35.14;99836.20;1683923;84;21137;-73
2022/05/27 11:22:22;;;;;;;0.95;0.10;;;;;;;22.33;35.08;99834.58;1683465;84;21046;-72
2022/05/27 11:25:23;;;;;;;1.17;0.10;;;;;;;22.25;35.23;99831.10;1682922;84;21565;-72
2022/05/27 11:28:38;;;;;;;0.85;0.20;;;;;;;22.27;35.62;99828.92;1683780;84;21569;-72
2022/05/27 11:31:25;;;;;;;6.60;0.20;;;;;;;22.34;35.94;99828.08;1683787;84;21045;-71
2022/05/27 11:34:00;;;;;;;;;;;;;;;22.44;35.79;99820.97;1685103;84;21576;-72
2022/05/27 11:36:50;;;;;;;1.47;0.30;;;;;;;22.55;35.88;99809.77;1683605;84;20816;-71
2022/05/27 11:39:39;;;;;;;0.20;0.15;;;;;;;22.57;35.58;99804.61;1682608;84;21010;-71
2022/05/27 11:42:41;;;;;;;0.42;0.10;;;;;;;22.61;35.36;99796.96;1683405;83;21049;-72
2022/05/27 11:45:30;;;;;;;1.92;0.30;;;;;;;22.63;35.50;99792.06;1684180;84;21030;-71
2022/05/27 11:48:09;;;;;;;0.90;0.10;;;;;;;22.62;35.10;99794.53;1683728;84;21089;-71
2022/05/27 11:51:12;;;;;;;0.72;0.10;;;;;;;22.57;35.31;99791.83;1665696;84;21018;-72
2022/05/27 11:53:52;;;;;;;2.85;0.28;;;;;;;22.57;35.64;99780.17;1683366;84;21282;-72
2022/05/27 11:56:36;;;;;;;2.58;0.35;;;;;;;22.57;35.59;99780.97;1658793;84;21288;-71
2022/05/27 11:59:32;;;;;;;2.83;0.35;;;;;;;22.61;36.00;99779.31;1683542;84;21581;-76
2022/05/27 12:02:19;;;;;;;2.37;0.10;;;;;;;22.69;35.78;99775.98;1682379;84;21062;-72
2022/05/27 12:05:12;;;;;;;1.02;0.47;;;;;;;22.77;35.99;99771.84;1683393;84;21073;-71
2022/05/27 12:07:55;;;;;;;2.47;0.40;;;;;;;22.86;35.92;99762.00;1637052;86;21042;-74
2022/05/27 12:10:44;;;;;;;0.57;0.20;;;;;;;22.89;35.95;99752.48;1676021;85;21566;-70
2022/05/27 12:13:27;;;;;;;3.45;0.30;;;;;;;22.88;35.91;99754.93;1683014;84;21102;-71
2022/05/27 12:15:59;;;;;;;2.77;0.23;;;;;;;22.76;35.70;99741.72;1681742;84;21018;-73
2022/05/27 12:18:48;;;;;;;0.30;0.10;;;;;;;22.66;35.80;99749.92;1682739;84;21561;-74
2022/05/27 12:21:19;;;;;;;1.17;0.20;;;;;;;22.62;36.05;99753.78;1661562;84;21022;-72
2022/05/27 12:23:56;;;;;;;0.72;0.15;;;;;;;22.54;36.31;99745.66;1658075;84;21495;-72
2022/05/27 12:26:30;;;;;;;2.33;0.45;;;;;;;22.48;35.99;99744.64;1683547;85;21074;-73
2022/05/27 12:29:00;;;;;;;0.82;0.30;;;;;;;22.43;36.08;99735.96;1684857;84;21073;-74
2022/05/27 12:31:31;;;;;;;0.65;0.30;;;;;;;22.38;36.20;99734.66;1683516;84;21158;-71